Private Wetterstation Wechselburg
Wetterdaten: Woche 20.03.23 - 26.03.23 (KW12)
Datum Zeit Temp. +2m Bodentemp. Temp.+5cm Temp. Wind Windchill X Diff Temp. Feuchte +2m Feuchte +5cm Luftdruck Regen Wind Richtung Sonnenschein Taupunkt Windchill Windben
20.03.2023 00:00 7,5 C 11,3 C 6,8 C 7,8 C 7,8 C 0,3 C 87 % 75 % 1017,7 hPa 0,0 l/m 0,0 km/h (0 Bft) N 0,00 h 5,5 C 7,8 C 0,0 km/h (0 Bft)
20.03.2023 01:00 8,2 C 11,1 C 7,9 C 8,4 C 8,4 C 0,3 C 88 % 79 % 1017,9 hPa 0,0 l/m 0,0 km/h (0 Bft) N 0,00 h 6,3 C 8,4 C 0,0 km/h (0 Bft)
20.03.2023 02:00 8,5 C 11,1 C 8,0 C 8,6 C 8,6 C 0,1 C 87 % 78 % 1017,9 hPa 0,0 l/m 0,0 km/h (0 Bft) N 0,00 h 6,4 C 8,6 C 0,2 km/h (0 Bft)
20.03.2023 03:00 8,6 C 11,1 C 7,7 C 8,6 C 8,6 C 0,0 C 87 % 76 % 1017,6 hPa 0,0 l/m 0,0 km/h (0 Bft) N 0,00 h 6,6 C 8,6 C 0,0 km/h (0 Bft)
20.03.2023 04:00 8,4 C 11,1 C 6,8 C 8,3 C 7,9 C 0,0 C 87 % 75 % 1017,4 hPa 0,0 l/m 0,0 km/h (0 Bft) N 0,00 h 6,3 C 7,9 C 0,0 km/h (0 Bft)
20.03.2023 05:00 7,3 C 11,2 C 5,1 C 7,0 C 6,4 C 0,0 C 86 % 75 % 1017,7 hPa 0,0 l/m 0,0 km/h (0 Bft) N 0,00 h 5,2 C 6,4 C 0,0 km/h (0 Bft)
20.03.2023 06:00 7,1 C 11,1 C 5,8 C 7,1 C 6,9 C 0,1 C 87 % 78 % 1018,4 hPa 0,0 l/m 0,0 km/h (0 Bft) N 0,00 h 5,1 C 6,9 C 0,0 km/h (0 Bft)
20.03.2023 07:00 7,8 C 11,0 C 7,5 C 8,2 C 8,2 C 0,4 C 88 % 78 % 1018,6 hPa 0,0 l/m 0,0 km/h (0 Bft) N 0,00 h 6,0 C 8,2 C 0,0 km/h (0 Bft)
20.03.2023 08:00 9,1 C 10,8 C 9,3 C 10,5 C 10,5 C 1,4 C 88 % 76 % 1018,7 hPa 0,0 l/m 0,0 km/h (0 Bft) N 0,00 h 7,2 C 10,5 C 0,0 km/h (0 Bft)
20.03.2023 09:00 10,4 C 10,7 C 10,9 C 12,3 C 12,3 C 1,9 C 86 % 73 % 1019,0 hPa 0,0 l/m 1,4 km/h (1 Bft) SW 0,00 h 8,1 C 12,3 C 2,8 km/h (1 Bft)
20.03.2023 10:00 11,4 C 10,7 C 12,0 C 13,4 C 13,4 C 2,0 C 83 % 68 % 1019,3 hPa 0,0 l/m 1,5 km/h (1 Bft) SW 0,00 h 8,6 C 13,4 C 2,6 km/h (1 Bft)
20.03.2023 11:00 11,5 C 11,0 C 11,3 C 12,2 C 12,1 C 0,7 C 82 % 72 % 1019,3 hPa 0,0 l/m 0,2 km/h (0 Bft) N 0,00 h 8,4 C 12,1 C 0,1 km/h (0 Bft)
20.03.2023 12:00 11,6 C 11,2 C 11,5 C 12,0 C 12,0 C 0,4 C 84 % 79 % 1019,5 hPa 0,0 l/m 0,0 km/h (0 Bft) N 0,00 h 9,0 C 12,0 C 0,0 km/h (0 Bft)
20.03.2023 13:00 12,2 C 11,1 C 12,2 C 13,9 C 13,8 C 1,7 C 82 % 74 % 1019,0 hPa 0,0 l/m 0,2 km/h (0 Bft) N 0,00 h 9,2 C 13,8 C 1,0 km/h (0 Bft)
20.03.2023 14:00 11,2 C 11,5 C 10,8 C 11,1 C 10,9 C 0,0 C 84 % 80 % 1018,5 hPa 0,0 l/m 0,3 km/h (0 Bft) N 0,00 h 8,5 C 10,9 C 1,2 km/h (1 Bft)
20.03.2023 15:00 10,6 C 11,7 C 10,1 C 10,5 C 10,3 C 0,0 C 86 % 90 % 1018,3 hPa 0,7 l/m 0,1 km/h (0 Bft) N 0,00 h 8,4 C 10,3 C 0,1 km/h (0 Bft)
20.03.2023 16:00 10,4 C 11,7 C 10,0 C 10,3 C 10,0 C 0,0 C 86 % 89 % 1018,0 hPa 0,0 l/m 0,1 km/h (0 Bft) S 0,00 h 8,2 C 10,0 C 0,4 km/h (0 Bft)
20.03.2023 17:00 10,2 C 11,8 C 9,8 C 10,1 C 9,8 C 0,0 C 87 % 90 % 1017,7 hPa 0,0 l/m 0,3 km/h (0 Bft) N 0,00 h 8,2 C 9,8 C 0,7 km/h (0 Bft)
20.03.2023 18:00 10,0 C 11,6 C 9,3 C 9,8 C 9,6 C 0,0 C 87 % 87 % 1018,2 hPa 0,0 l/m 0,7 km/h (0 Bft) S-SW 0,00 h 7,9 C 9,6 C 1,2 km/h (1 Bft)
20.03.2023 19:00 9,7 C 11,4 C 8,5 C 9,5 C 9,0 C 0,0 C 86 % 78 % 1017,9 hPa 0,0 l/m 0,9 km/h (0 Bft) SW 0,00 h 7,5 C 9,0 C 1,5 km/h (1 Bft)
20.03.2023 20:00 9,0 C 11,4 C 7,5 C 8,8 C 8,3 C 0,0 C 85 % 78 % 1018,2 hPa 0,0 l/m 0,0 km/h (0 Bft) N 0,00 h 6,6 C 8,3 C 0,0 km/h (0 Bft)
20.03.2023 21:00 8,8 C 11,4 C 7,9 C 8,7 C 8,5 C 0,0 C 86 % 78 % 1018,1 hPa 0,0 l/m 0,0 km/h (0 Bft) N 0,00 h 6,6 C 8,5 C 0,0 km/h (0 Bft)
20.03.2023 22:00 9,1 C 11,3 C 8,6 C 9,2 C 9,2 C 0,1 C 86 % 77 % 1018,0 hPa 0,0 l/m 0,4 km/h (0 Bft) N 0,00 h 6,8 C 9,2 C 0,7 km/h (0 Bft)
20.03.2023 23:00 9,3 C 11,2 C 8,6 C 9,4 C 9,3 C 0,0 C 85 % 75 % 1017,9 hPa 0,0 l/m 1,4 km/h (1 Bft) S-SW 0,00 h 6,9 C 9,3 C 2,6 km/h (1 Bft)
21.03.2023 00:00 9,1 C 11,1 C 8,0 C 9,1 C 9,0 C 0,0 C 82 % 73 % 1018,0 hPa 0,0 l/m 0,2 km/h (0 Bft) NO 0,00 h 6,3 C 9,0 C 1,0 km/h (0 Bft)
21.03.2023 01:00 8,5 C 11,0 C 7,5 C 8,5 C 8,4 C 0,0 C 82 % 72 % 1018,3 hPa 0,0 l/m 0,1 km/h (0 Bft) N 0,00 h 5,6 C 8,4 C 0,4 km/h (0 Bft)
21.03.2023 02:00 8,2 C 10,9 C 7,4 C 8,2 C 8,2 C 0,0 C 79 % 67 % 1018,0 hPa 0,0 l/m 0,2 km/h (0 Bft) N 0,00 h 4,8 C 8,2 C 0,3 km/h (0 Bft)
21.03.2023 03:00 7,7 C 10,9 C 7,1 C 7,7 C 7,7 C 0,0 C 80 % 69 % 1017,9 hPa 0,0 l/m 0,5 km/h (0 Bft) SW 0,00 h 4,5 C 7,7 C 1,1 km/h (1 Bft)
21.03.2023 04:00 7,1 C 11,1 C 6,7 C 7,1 C 7,1 C 0,0 C 83 % 73 % 1017,7 hPa 0,0 l/m 0,1 km/h (0 Bft) N 0,00 h 4,5 C 7,1 C 0,9 km/h (0 Bft)
21.03.2023 05:00 6,7 C 11,2 C 6,2 C 6,6 C 6,3 C 0,0 C 86 % 81 % 1017,8 hPa 0,0 l/m 0,1 km/h (0 Bft) N 0,00 h 4,5 C 6,3 C 0,0 km/h (0 Bft)
21.03.2023 06:00 6,4 C 11,0 C 6,1 C 6,4 C 6,3 C 0,0 C 88 % 88 % 1017,9 hPa 0,0 l/m 0,0 km/h (0 Bft) N 0,00 h 4,6 C 6,3 C 0,0 km/h (0 Bft)
21.03.2023 07:00 6,6 C 11,0 C 6,7 C 6,9 C 6,9 C 0,3 C 88 % 88 % 1018,1 hPa 0,0 l/m 1,0 km/h (0 Bft) S-SO 0,00 h 4,8 C 6,9 C 1,5 km/h (1 Bft)
21.03.2023 08:00 7,5 C 10,8 C 7,9 C 8,6 C 8,6 C 1,1 C 88 % 86 % 1018,2 hPa 0,0 l/m 1,1 km/h (1 Bft) S-SO 0,00 h 5,6 C 8,6 C 2,0 km/h (1 Bft)
21.03.2023 09:00 8,9 C 10,6 C 9,6 C 11,4 C 11,4 C 2,5 C 85 % 70 % 1018,0 hPa 0,0 l/m 1,8 km/h (1 Bft) S-SW 0,25 h 6,6 C 11,4 C 4,2 km/h (1 Bft)
21.03.2023 10:00 10,5 C 10,6 C 11,2 C 13,3 C 13,3 C 2,9 C 79 % 63 % 1018,0 hPa 0,0 l/m 0,9 km/h (0 Bft) SO 0,08 h 7,0 C 13,3 C 1,6 km/h (1 Bft)
21.03.2023 11:00 12,1 C 10,6 C 13,1 C 16,0 C 16,0 C 3,9 C 75 % 58 % 1017,5 hPa 0,0 l/m 1,1 km/h (1 Bft) SO 0,83 h 7,7 C 16,0 C 1,7 km/h (1 Bft)
21.03.2023 12:00 13,5 C 10,8 C 14,7 C 17,6 C 17,6 C 4,1 C 70 % 55 % 1017,0 hPa 0,0 l/m 2,1 km/h (1 Bft) S 1,00 h 8,2 C 17,6 C 2,6 km/h (1 Bft)
21.03.2023 13:00 14,7 C 11,0 C 15,6 C 18,5 C 18,5 C 3,8 C 67 % 52 % 1016,2 hPa 0,0 l/m 2,2 km/h (1 Bft) SW 1,00 h 8,5 C 18,5 C 3,0 km/h (1 Bft)
21.03.2023 14:00 15,4 C 11,2 C 15,8 C 18,5 C 18,5 C 3,1 C 64 % 50 % 1015,5 hPa 0,0 l/m 2,2 km/h (1 Bft) S-SW 0,42 h 8,5 C 18,5 C 3,7 km/h (1 Bft)
21.03.2023 15:00 15,7 C 11,4 C 15,8 C 18,2 C 18,2 C 2,5 C 62 % 50 % 1015,0 hPa 0,0 l/m 1,9 km/h (1 Bft) W-SW 0,08 h 8,5 C 18,2 C 3,7 km/h (1 Bft)
21.03.2023 16:00 15,8 C 11,6 C 14,9 C 16,9 C 16,9 C 1,1 C 62 % 52 % 1014,4 hPa 0,0 l/m 0,1 km/h (0 Bft) N 0,00 h 8,5 C 16,9 C 0,0 km/h (0 Bft)
21.03.2023 17:00 15,2 C 11,7 C 14,1 C 15,5 C 15,4 C 0,2 C 65 % 55 % 1014,3 hPa 0,0 l/m 0,1 km/h (0 Bft) N 0,00 h 8,7 C 15,4 C 0,0 km/h (0 Bft)
21.03.2023 18:00 14,0 C 11,9 C 12,2 C 13,8 C 13,3 C 0,0 C 68 % 60 % 1014,3 hPa 0,0 l/m 0,0 km/h (0 Bft) N 0,00 h 8,3 C 13,3 C 0,0 km/h (0 Bft)
21.03.2023 19:00 12,9 C 11,9 C 11,7 C 12,7 C 12,3 C 0,0 C 72 % 61 % 1014,7 hPa 0,0 l/m 0,0 km/h (0 Bft) N 0,00 h 7,9 C 12,3 C 0,0 km/h (0 Bft)
21.03.2023 20:00 12,4 C 11,9 C 11,7 C 12,4 C 12,2 C 0,0 C 73 % 61 % 1014,5 hPa 0,0 l/m 0,7 km/h (0 Bft) SW 0,00 h 7,7 C 12,2 C 1,0 km/h (0 Bft)
21.03.2023 21:00 12,1 C 11,9 C 11,2 C 12,1 C 11,9 C 0,0 C 75 % 66 % 1014,6 hPa 0,0 l/m 0,2 km/h (0 Bft) N 0,00 h 7,9 C 11,9 C 0,0 km/h (0 Bft)
21.03.2023 22:00 11,1 C 12,2 C 10,2 C 10,8 C 10,1 C 0,0 C 80 % 76 % 1014,8 hPa 0,0 l/m 0,1 km/h (0 Bft) N 0,00 h 7,8 C 10,1 C 0,2 km/h (0 Bft)
21.03.2023 23:00 10,4 C 12,5 C 9,6 C 10,2 C 9,6 C 0,0 C 84 % 83 % 1014,7 hPa 0,0 l/m 0,0 km/h (0 Bft) N 0,00 h 7,8 C 9,6 C 0,0 km/h (0 Bft)
22.03.2023 00:00 10,1 C 12,5 C 9,3 C 9,9 C 9,5 C 0,0 C 86 % 89 % 1014,3 hPa 0,0 l/m 0,4 km/h (0 Bft) SO 0,00 h 7,9 C 9,5 C 1,3 km/h (1 Bft)
22.03.2023 01:00 9,8 C 12,4 C 8,7 C 9,5 C 8,9 C 0,0 C 87 % 89 % 1014,2 hPa 0,0 l/m 1,6 km/h (1 Bft) S 0,00 h 7,7 C 8,9 C 3,4 km/h (1 Bft)
22.03.2023 02:00 9,2 C 12,1 C 8,1 C 8,8 C 8,2 C 0,0 C 86 % 82 % 1013,8 hPa 0,0 l/m 2,1 km/h (1 Bft) SO 0,00 h 6,9 C 8,2 C 4,0 km/h (1 Bft)
22.03.2023 03:00 8,9 C 11,9 C 7,8 C 8,6 C 8,3 C 0,0 C 84 % 75 % 1013,4 hPa 0,0 l/m 2,7 km/h (1 Bft) SO 0,00 h 6,3 C 8,3 C 4,5 km/h (1 Bft)
22.03.2023 04:00 8,4 C 11,7 C 7,4 C 8,3 C 7,9 C 0,0 C 83 % 75 % 1013,0 hPa 0,0 l/m 0,9 km/h (0 Bft) S 0,00 h 5,7 C 7,9 C 1,2 km/h (1 Bft)
22.03.2023 05:00 8,8 C 11,6 C 8,1 C 8,8 C 8,7 C 0,0 C 83 % 73 % 1013,5 hPa 0,0 l/m 2,9 km/h (1 Bft) SO 0,00 h 6,1 C 8,7 C 4,3 km/h (1 Bft)
22.03.2023 06:00 8,8 C 11,5 C 8,1 C 8,8 C 8,6 C 0,0 C 83 % 72 % 1012,7 hPa 0,0 l/m 1,0 km/h (0 Bft) S 0,00 h 6,1 C 8,6 C 1,9 km/h (1 Bft)
22.03.2023 07:00 8,9 C 11,5 C 8,1 C 9,0 C 8,9 C 0,1 C 82 % 72 % 1012,8 hPa 0,0 l/m 0,3 km/h (0 Bft) S 0,00 h 6,0 C 8,9 C 0,6 km/h (0 Bft)
22.03.2023 08:00 9,8 C 11,4 C 9,7 C 11,7 C 11,7 C 1,9 C 81 % 68 % 1012,8 hPa 0,0 l/m 1,6 km/h (1 Bft) S 0,00 h 6,7 C 11,7 C 2,5 km/h (1 Bft)
22.03.2023 09:00 11,9 C 11,4 C 12,3 C 15,0 C 14,9 C 3,1 C 76 % 61 % 1013,0 hPa 0,0 l/m 3,9 km/h (1 Bft) S-SW 0,42 h 7,9 C 14,9 C 9,6 km/h (2 Bft)
22.03.2023 10:00 13,0 C 11,5 C 13,5 C 15,4 C 15,4 C 2,4 C 73 % 57 % 1012,6 hPa 0,0 l/m 4,3 km/h (1 Bft) O 0,00 h 8,2 C 15,4 C 5,0 km/h (1 Bft)
22.03.2023 11:00 14,4 C 11,6 C 15,5 C 17,4 C 17,4 C 3,1 C 69 % 53 % 1011,9 hPa 0,0 l/m 3,9 km/h (1 Bft) SW 0,33 h 8,6 C 17,4 C 6,8 km/h (2 Bft)
22.03.2023 12:00 16,0 C 11,8 C 16,7 C 20,4 C 20,4 C 4,4 C 61 % 45 % 1011,7 hPa 0,0 l/m 6,0 km/h (2 Bft) S 1,00 h 8,4 C 20,4 C 9,0 km/h (2 Bft)
22.03.2023 13:00 16,4 C 12,0 C 16,6 C 19,4 C 19,4 C 3,1 C 57 % 44 % 1010,8 hPa 0,0 l/m 7,1 km/h (2 Bft) SW 0,42 h 7,8 C 19,4 C 11,6 km/h (2 Bft)
22.03.2023 14:00 16,8 C 12,2 C 16,6 C 19,6 C 19,6 C 2,8 C 53 % 41 % 1010,2 hPa 0,0 l/m 5,8 km/h (2 Bft) S-SO 0,27 h 7,3 C 19,6 C 8,2 km/h (2 Bft)
22.03.2023 15:00 16,8 C 12,4 C 16,3 C 19,0 C 19,0 C 2,2 C 53 % 41 % 1009,9 hPa 0,0 l/m 7,1 km/h (2 Bft) W-SW 0,00 h 7,1 C 19,0 C 9,2 km/h (2 Bft)
22.03.2023 16:00 16,8 C 12,6 C 15,9 C 17,9 C 17,9 C 1,1 C 53 % 42 % 1009,8 hPa 0,0 l/m 6,1 km/h (2 Bft) S 0,00 h 7,3 C 17,9 C 10,6 km/h (2 Bft)
22.03.2023 17:00 16,1 C 12,7 C 15,0 C 16,4 C 16,3 C 0,3 C 54 % 42 % 1009,9 hPa 0,0 l/m 5,5 km/h (1 Bft) S 0,00 h 6,8 C 16,3 C 8,0 km/h (2 Bft)
22.03.2023 18:00 14,6 C 12,8 C 13,4 C 14,5 C 14,2 C 0,0 C 58 % 45 % 1010,0 hPa 0,0 l/m 3,5 km/h (1 Bft) S 0,00 h 6,4 C 14,2 C 3,7 km/h (1 Bft)
22.03.2023 19:00 13,9 C 12,8 C 12,6 C 13,7 C 13,3 C 0,0 C 60 % 48 % 1010,7 hPa 0,0 l/m 2,8 km/h (1 Bft) S 0,00 h 6,3 C 13,3 C 3,4 km/h (1 Bft)
22.03.2023 20:00 13,2 C 12,7 C 12,0 C 12,9 C 12,4 C 0,0 C 62 % 48 % 1010,7 hPa 0,0 l/m 0,3 km/h (0 Bft) W-SW 0,00 h 6,0 C 12,4 C 1,0 km/h (0 Bft)
22.03.2023 21:00 13,1 C 12,7 C 12,0 C 12,8 C 12,2 C 0,0 C 63 % 52 % 1010,6 hPa 0,0 l/m 2,2 km/h (1 Bft) S 0,00 h 6,2 C 12,2 C 4,4 km/h (1 Bft)
22.03.2023 22:00 13,7 C 12,6 C 12,4 C 13,6 C 13,5 C 0,0 C 61 % 51 % 1009,8 hPa 0,0 l/m 4,9 km/h (1 Bft) S 0,00 h 6,3 C 13,5 C 6,6 km/h (2 Bft)
22.03.2023 23:00 13,7 C 12,6 C 12,8 C 13,7 C 13,5 C 0,0 C 62 % 50 % 1010,0 hPa 0,0 l/m 3,6 km/h (1 Bft) SO 0,00 h 6,6 C 13,5 C 6,0 km/h (2 Bft)
23.03.2023 00:00 13,9 C 12,6 C 12,9 C 13,8 C 13,6 C 0,0 C 61 % 47 % 1009,2 hPa 0,0 l/m 3,9 km/h (1 Bft) S 0,00 h 6,4 C 13,6 C 7,4 km/h (2 Bft)
23.03.2023 01:00 13,7 C 12,6 C 12,5 C 13,6 C 13,3 C 0,0 C 59 % 46 % 1008,9 hPa 0,0 l/m 3,2 km/h (1 Bft) S 0,00 h 5,9 C 13,3 C 4,9 km/h (1 Bft)
23.03.2023 02:00 13,6 C 12,5 C 12,2 C 13,5 C 13,3 C 0,0 C 58 % 46 % 1008,4 hPa 0,0 l/m 2,9 km/h (1 Bft) S 0,00 h 5,5 C 13,3 C 3,8 km/h (1 Bft)
23.03.2023 03:00 13,6 C 12,5 C 12,6 C 13,5 C 13,2 C 0,0 C 58 % 44 % 1007,9 hPa 0,0 l/m 4,0 km/h (1 Bft) S 0,00 h 5,4 C 13,2 C 8,5 km/h (2 Bft)
23.03.2023 04:00 13,6 C 12,5 C 12,5 C 13,4 C 13,1 C 0,0 C 59 % 45 % 1007,6 hPa 0,0 l/m 4,5 km/h (1 Bft) S-SO 0,00 h 5,7 C 13,1 C 7,6 km/h (2 Bft)
23.03.2023 05:00 13,3 C 12,5 C 12,5 C 13,2 C 13,0 C 0,0 C 62 % 47 % 1007,4 hPa 0,0 l/m 3,5 km/h (1 Bft) S-SO 0,00 h 6,1 C 13,0 C 5,2 km/h (1 Bft)
23.03.2023 06:00 13,6 C 12,5 C 12,9 C 13,6 C 13,5 C 0,0 C 61 % 46 % 1007,6 hPa 0,0 l/m 3,2 km/h (1 Bft) SO 0,00 h 6,2 C 13,5 C 6,0 km/h (2 Bft)
23.03.2023 07:00 13,7 C 12,5 C 13,3 C 14,0 C 14,0 C 0,3 C 62 % 47 % 1007,8 hPa 0,0 l/m 2,3 km/h (1 Bft) SW 0,00 h 6,5 C 14,0 C 3,8 km/h (1 Bft)
23.03.2023 08:00 13,8 C 12,5 C 13,1 C 14,0 C 13,9 C 0,3 C 64 % 54 % 1008,4 hPa 0,0 l/m 6,4 km/h (2 Bft) S-SW 0,00 h 7,1 C 13,9 C 11,0 km/h (2 Bft)
23.03.2023 09:00 13,2 C 12,6 C 12,5 C 13,4 C 13,1 C 0,3 C 70 % 62 % 1008,8 hPa 0,0 l/m 5,5 km/h (1 Bft) SW 0,00 h 7,7 C 13,1 C 8,4 km/h (2 Bft)
23.03.2023 10:00 13,8 C 12,6 C 14,0 C 15,0 C 15,0 C 1,3 C 69 % 56 % 1009,0 hPa 0,0 l/m 4,2 km/h (1 Bft) SO 0,00 h 8,3 C 15,0 C 9,7 km/h (2 Bft)
23.03.2023 11:00 14,6 C 12,7 C 14,8 C 16,1 C 16,1 C 1,5 C 68 % 54 % 1008,9 hPa 0,0 l/m 6,5 km/h (2 Bft) W-SW 0,00 h 8,8 C 16,1 C 10,7 km/h (2 Bft)
23.03.2023 12:00 14,4 C 12,8 C 14,6 C 15,5 C 15,5 C 1,1 C 69 % 55 % 1009,0 hPa 0,0 l/m 6,4 km/h (2 Bft) SO 0,00 h 8,8 C 15,5 C 9,8 km/h (2 Bft)
23.03.2023 13:00 14,5 C 12,9 C 14,8 C 16,0 C 15,9 C 1,4 C 70 % 56 % 1009,2 hPa 0,0 l/m 6,4 km/h (2 Bft) W-SW 0,00 h 9,1 C 15,9 C 9,6 km/h (2 Bft)
23.03.2023 14:00 15,1 C 12,9 C 15,2 C 17,0 C 17,1 C 2,0 C 66 % 52 % 1008,9 hPa 0,0 l/m 9,5 km/h (2 Bft) SW 0,32 h 8,7 C 17,1 C 16,7 km/h (3 Bft)
23.03.2023 15:00 15,5 C 13,0 C 15,3 C 17,0 C 16,9 C 1,5 C 63 % 51 % 1008,6 hPa 0,0 l/m 11,1 km/h (2 Bft) SW 0,00 h 8,6 C 16,9 C 14,8 km/h (3 Bft)
23.03.2023 16:00 14,8 C 13,1 C 14,5 C 15,1 C 15,0 C 0,3 C 66 % 53 % 1009,0 hPa 0,0 l/m 7,6 km/h (2 Bft) S-SW 0,00 h 8,5 C 15,0 C 11,8 km/h (2 Bft)
23.03.2023 17:00 14,3 C 13,2 C 13,8 C 14,4 C 14,4 C 0,2 C 69 % 56 % 1009,5 hPa 0,0 l/m 6,4 km/h (2 Bft) SW 0,00 h 8,6 C 14,4 C 8,9 km/h (2 Bft)
23.03.2023 18:00 13,2 C 13,2 C 12,2 C 13,0 C 12,6 C 0,0 C 72 % 62 % 1009,7 hPa 0,0 l/m 3,2 km/h (1 Bft) O 0,00 h 8,4 C 12,6 C 4,8 km/h (1 Bft)
23.03.2023 19:00 12,4 C 13,2 C 11,2 C 12,1 C 11,6 C 0,0 C 75 % 66 % 1009,8 hPa 0,0 l/m 1,2 km/h (1 Bft) S-SO 0,00 h 8,2 C 11,6 C 1,9 km/h (1 Bft)
23.03.2023 20:00 11,8 C 13,1 C 10,2 C 11,5 C 11,0 C 0,0 C 77 % 69 % 1009,7 hPa 0,0 l/m 1,0 km/h (0 Bft) S 0,00 h 7,8 C 11,0 C 2,3 km/h (1 Bft)
23.03.2023 21:00 11,9 C 13,0 C 10,8 C 11,8 C 11,5 C 0,0 C 78 % 69 % 1009,7 hPa 0,0 l/m 2,7 km/h (1 Bft) S-SO 0,00 h 8,1 C 11,5 C 5,1 km/h (1 Bft)
23.03.2023 22:00 12,7 C 13,0 C 11,4 C 12,5 C 12,3 C 0,0 C 75 % 66 % 1009,8 hPa 0,0 l/m 2,2 km/h (1 Bft) S 0,00 h 8,4 C 12,3 C 3,7 km/h (1 Bft)
23.03.2023 23:00 12,6 C 13,0 C 11,1 C 12,4 C 11,9 C 0,0 C 75 % 67 % 1008,8 hPa 0,0 l/m 3,5 km/h (1 Bft) S 0,00 h 8,2 C 11,9 C 5,2 km/h (1 Bft)
24.03.2023 00:00 12,5 C 12,9 C 10,9 C 12,3 C 11,9 C 0,0 C 75 % 66 % 1008,0 hPa 0,0 l/m 1,6 km/h (1 Bft) S-SO 0,00 h 8,2 C 11,9 C 3,4 km/h (1 Bft)
24.03.2023 01:00 11,2 C 13,0 C 9,5 C 11,0 C 10,6 C 0,0 C 77 % 68 % 1008,0 hPa 0,0 l/m 0,0 km/h (0 Bft) N 0,00 h 7,2 C 10,6 C 0,0 km/h (0 Bft)
24.03.2023 02:00 10,6 C 13,1 C 9,7 C 10,4 C 10,0 C 0,0 C 82 % 77 % 1007,1 hPa 0,0 l/m 0,1 km/h (0 Bft) N 0,00 h 7,5 C 10,0 C 0,0 km/h (0 Bft)
24.03.2023 03:00 11,4 C 12,9 C 10,3 C 11,1 C 10,5 C 0,0 C 83 % 80 % 1006,5 hPa 0,0 l/m 0,6 km/h (0 Bft) O 0,00 h 8,5 C 10,5 C 1,8 km/h (1 Bft)
24.03.2023 04:00 12,2 C 13,0 C 11,0 C 11,6 C 10,5 C 0,0 C 80 % 77 % 1006,0 hPa 0,0 l/m 3,8 km/h (1 Bft) S 0,00 h 8,9 C 10,5 C 7,0 km/h (2 Bft)
24.03.2023 05:00 12,2 C 12,9 C 11,1 C 11,9 C 11,3 C 0,0 C 80 % 75 % 1005,2 hPa 0,0 l/m 2,4 km/h (1 Bft) S 0,00 h 9,0 C 11,3 C 4,3 km/h (1 Bft)
24.03.2023 06:00 12,8 C 12,8 C 11,5 C 12,8 C 12,8 C 0,0 C 77 % 72 % 1004,6 hPa 0,0 l/m 3,7 km/h (1 Bft) S 0,00 h 8,9 C 12,8 C 6,2 km/h (2 Bft)
24.03.2023 07:00 14,0 C 12,8 C 13,1 C 14,2 C 14,2 C 0,2 C 73 % 64 % 1004,2 hPa 0,0 l/m 4,6 km/h (1 Bft) O-SO 0,00 h 9,2 C 14,2 C 7,2 km/h (2 Bft)
24.03.2023 08:00 15,1 C 12,8 C 14,6 C 15,7 C 15,7 C 0,6 C 69 % 58 % 1004,2 hPa 0,7 l/m 6,2 km/h (2 Bft) SO 0,00 h 9,4 C 15,7 C 14,4 km/h (3 Bft)
24.03.2023 09:00 15,4 C 12,9 C 15,3 C 16,3 C 16,3 C 0,9 C 68 % 56 % 1004,2 hPa 0,0 l/m 7,8 km/h (2 Bft) S-SO 0,00 h 9,5 C 16,3 C 11,0 km/h (2 Bft)
24.03.2023 10:00 15,6 C 13,0 C 15,8 C 17,4 C 17,4 C 1,9 C 70 % 57 % 1004,8 hPa 0,0 l/m 6,7 km/h (2 Bft) S-SW 0,00 h 10,1 C 17,4 C 10,5 km/h (2 Bft)
24.03.2023 11:00 15,8 C 13,2 C 16,4 C 17,7 C 17,7 C 1,9 C 68 % 55 % 1004,6 hPa 0,0 l/m 10,8 km/h (2 Bft) S 0,00 h 10,0 C 17,7 C 11,6 km/h (2 Bft)
24.03.2023 12:00 16,0 C 13,3 C 16,3 C 17,7 C 17,7 C 1,7 C 68 % 54 % 1004,4 hPa 0,0 l/m 9,5 km/h (2 Bft) SW 0,00 h 10,1 C 17,7 C 13,1 km/h (3 Bft)
24.03.2023 13:00 14,9 C 13,5 C 14,3 C 15,1 C 14,8 C 0,3 C 72 % 64 % 1004,4 hPa 0,7 l/m 7,7 km/h (2 Bft) S-SW 0,00 h 9,8 C 14,8 C 8,3 km/h (2 Bft)
24.03.2023 14:00 10,9 C 14,0 C 10,3 C 10,5 C 9,6 C 0,0 C 82 % 86 % 1005,3 hPa 1,4 l/m 6,1 km/h (2 Bft) SW 0,00 h 8,0 C 9,2 C 6,8 km/h (2 Bft)
24.03.2023 15:00 10,3 C 13,8 C 10,2 C 10,2 C 10,1 C 0,0 C 86 % 90 % 1005,5 hPa 0,0 l/m 2,8 km/h (1 Bft) S-SO 0,00 h 8,0 C 10,1 C 4,6 km/h (1 Bft)
24.03.2023 16:00 10,8 C 13,5 C 10,3 C 11,5 C 11,5 C 0,7 C 85 % 87 % 1005,1 hPa 0,0 l/m 4,7 km/h (1 Bft) S 0,00 h 8,3 C 11,5 C 6,5 km/h (2 Bft)
24.03.2023 17:00 11,4 C 13,3 C 10,3 C 11,9 C 11,9 C 0,5 C 81 % 81 % 1005,1 hPa 0,0 l/m 2,6 km/h (1 Bft) SO 0,00 h 8,3 C 11,9 C 5,1 km/h (1 Bft)
24.03.2023 18:00 11,2 C 13,2 C 9,5 C 11,0 C 10,8 C 0,0 C 78 % 78 % 1005,7 hPa 0,0 l/m 2,2 km/h (1 Bft) S-SW 0,00 h 7,6 C 10,8 C 4,7 km/h (1 Bft)
24.03.2023 19:00 10,5 C 13,1 C 8,9 C 10,3 C 9,8 C 0,0 C 76 % 75 % 1005,9 hPa 0,0 l/m 2,0 km/h (1 Bft) SW 0,00 h 6,5 C 9,8 C 2,0 km/h (1 Bft)
24.03.2023 20:00 10,0 C 13,0 C 8,6 C 9,7 C 9,1 C 0,0 C 78 % 75 % 1006,5 hPa 0,0 l/m 1,7 km/h (1 Bft) SW 0,00 h 6,3 C 9,1 C 4,5 km/h (1 Bft)
24.03.2023 21:00 9,7 C 12,8 C 7,9 C 9,4 C 8,8 C 0,0 C 79 % 77 % 1006,5 hPa 0,0 l/m 3,0 km/h (1 Bft) S 0,00 h 6,2 C 8,8 C 5,7 km/h (1 Bft)
24.03.2023 22:00 9,6 C 12,7 C 8,2 C 9,3 C 8,8 C 0,0 C 81 % 78 % 1006,6 hPa 0,0 l/m 2,9 km/h (1 Bft) S-SO 0,00 h 6,5 C 8,7 C 5,5 km/h (1 Bft)
24.03.2023 23:00 9,8 C 12,7 C 8,6 C 9,5 C 8,9 C 0,0 C 82 % 77 % 1006,5 hPa 0,0 l/m 5,3 km/h (1 Bft) S 0,00 h 6,8 C 8,4 C 8,3 km/h (2 Bft)
25.03.2023 00:00 10,0 C 12,5 C 9,0 C 9,9 C 9,5 C 0,0 C 80 % 73 % 1006,8 hPa 0,0 l/m 5,7 km/h (1 Bft) O-NO 0,00 h 6,8 C 8,9 C 9,6 km/h (2 Bft)
25.03.2023 01:00 9,8 C 12,5 C 8,7 C 9,6 C 9,1 C 0,0 C 80 % 72 % 1006,9 hPa 0,0 l/m 3,2 km/h (1 Bft) SO 0,00 h 6,5 C 9,0 C 4,7 km/h (1 Bft)
25.03.2023 02:00 9,8 C 12,4 C 8,9 C 9,7 C 9,6 C 0,0 C 81 % 72 % 1006,6 hPa 0,0 l/m 2,9 km/h (1 Bft) S-SO 0,00 h 6,7 C 9,6 C 5,4 km/h (1 Bft)
25.03.2023 03:00 9,7 C 12,4 C 8,7 C 9,3 C 8,4 C 0,0 C 82 % 75 % 1005,6 hPa 0,0 l/m 3,7 km/h (1 Bft) SO 0,00 h 6,7 C 8,2 C 7,4 km/h (2 Bft)
25.03.2023 04:00 9,6 C 12,2 C 8,7 C 9,4 C 9,2 C 0,0 C 80 % 69 % 1005,1 hPa 0,7 l/m 4,4 km/h (1 Bft) S 0,00 h 6,3 C 9,0 C 7,3 km/h (2 Bft)
25.03.2023 05:00 9,5 C 12,1 C 8,6 C 9,2 C 8,8 C 0,0 C 78 % 67 % 1005,7 hPa 0,0 l/m 6,0 km/h (2 Bft) SW 0,00 h 5,9 C 8,1 C 13,8 km/h (3 Bft)
25.03.2023 06:00 8,6 C 12,0 C 7,7 C 8,3 C 7,7 C 0,0 C 76 % 65 % 1005,9 hPa 0,0 l/m 5,6 km/h (1 Bft) SW 0,00 h 4,7 C 7,2 C 9,7 km/h (2 Bft)
25.03.2023 07:00 8,4 C 11,8 C 8,0 C 9,5 C 9,4 C 1,1 C 77 % 65 % 1006,5 hPa 0,0 l/m 4,4 km/h (1 Bft) S 0,00 h 4,5 C 9,3 C 7,2 km/h (2 Bft)
25.03.2023 08:00 8,4 C 11,9 C 8,0 C 8,3 C 7,8 C 0,1 C 79 % 73 % 1006,9 hPa 0,0 l/m 5,1 km/h (1 Bft) SW 0,00 h 4,9 C 7,2 C 8,2 km/h (2 Bft)
25.03.2023 09:00 7,8 C 12,2 C 7,5 C 7,5 C 6,8 C 0,0 C 84 % 85 % 1007,2 hPa 1,4 l/m 4,9 km/h (1 Bft) SW 0,00 h 5,2 C 6,2 C 6,3 km/h (2 Bft)
25.03.2023 10:00 8,7 C 12,0 C 8,7 C 9,4 C 9,4 C 0,8 C 85 % 85 % 1007,4 hPa 0,0 l/m 5,2 km/h (1 Bft) SO 0,00 h 6,3 C 9,1 C 7,1 km/h (2 Bft)
25.03.2023 11:00 9,6 C 11,8 C 9,5 C 10,4 C 9,7 C 0,9 C 77 % 75 % 1007,3 hPa 0,0 l/m 10,9 km/h (2 Bft) W-SW 0,00 h 5,8 C 8,8 C 14,2 km/h (3 Bft)
25.03.2023 12:00 10,1 C 11,7 C 10,0 C 11,1 C 11,0 C 1,0 C 75 % 73 % 1007,1 hPa 0,0 l/m 6,8 km/h (2 Bft) S 0,00 h 5,9 C 11,0 C 9,2 km/h (2 Bft)
25.03.2023 13:00 10,9 C 11,7 C 10,8 C 13,0 C 12,9 C 2,1 C 73 % 66 % 1006,6 hPa 0,0 l/m 6,9 km/h (2 Bft) SW 0,25 h 6,2 C 12,9 C 8,5 km/h (2 Bft)
25.03.2023 14:00 11,2 C 11,7 C 10,9 C 12,7 C 12,0 C 1,5 C 68 % 56 % 1006,0 hPa 0,0 l/m 11,5 km/h (2 Bft) S-SW 0,00 h 5,5 C 11,4 C 17,5 km/h (3 Bft)
25.03.2023 15:00 8,3 C 11,9 C 8,0 C 7,8 C 6,4 C 0,0 C 77 % 64 % 1006,6 hPa 0,0 l/m 9,8 km/h (2 Bft) SW 0,00 h 4,4 C 4,4 C 12,6 km/h (3 Bft)
25.03.2023 16:00 8,9 C 11,7 C 8,7 C 9,1 C 8,9 C 0,2 C 73 % 57 % 1006,7 hPa 0,0 l/m 8,5 km/h (2 Bft) W-SW 0,00 h 4,4 C 7,7 C 12,0 km/h (2 Bft)
25.03.2023 17:00 9,9 C 11,7 C 9,2 C 10,5 C 10,4 C 0,7 C 71 % 57 % 1006,8 hPa 0,0 l/m 5,9 km/h (2 Bft) SW 0,08 h 5,0 C 10,2 C 7,8 km/h (2 Bft)
25.03.2023 18:00 9,7 C 11,6 C 8,7 C 9,4 C 8,7 C 0,0 C 70 % 56 % 1006,5 hPa 0,0 l/m 5,9 km/h (2 Bft) S 0,00 h 4,5 C 8,0 C 6,8 km/h (2 Bft)
25.03.2023 19:00 9,5 C 11,6 C 8,7 C 9,2 C 8,6 C 0,0 C 72 % 58 % 1007,1 hPa 0,0 l/m 4,3 km/h (1 Bft) W-SW 0,00 h 4,7 C 8,3 C 5,1 km/h (1 Bft)
25.03.2023 20:00 8,3 C 11,8 C 7,5 C 8,0 C 6,9 C 0,0 C 78 % 72 % 1007,5 hPa 0,7 l/m 5,2 km/h (1 Bft) NW 0,00 h 4,6 C 6,2 C 7,2 km/h (2 Bft)
25.03.2023 21:00 7,3 C 11,8 C 6,6 C 7,0 C 6,5 C 0,0 C 84 % 88 % 1007,6 hPa 0,0 l/m 2,8 km/h (1 Bft) S 0,00 h 4,7 C 6,3 C 3,5 km/h (1 Bft)
25.03.2023 22:00 8,0 C 11,6 C 7,2 C 7,8 C 7,2 C 0,0 C 82 % 81 % 1007,4 hPa 0,0 l/m 5,7 km/h (1 Bft) W-SW 0,00 h 5,1 C 6,3 C 8,5 km/h (2 Bft)
25.03.2023 23:00 8,2 C 11,4 C 7,3 C 7,9 C 7,2 C 0,0 C 78 % 75 % 1007,3 hPa 0,0 l/m 7,1 km/h (2 Bft) SW 0,00 h 4,6 C 6,0 C 9,0 km/h (2 Bft)
26.03.2023 00:00 8,2 C 11,3 C 7,5 C 7,8 C 7,0 C 0,0 C 78 % 71 % 1007,6 hPa 0,0 l/m 7,7 km/h (2 Bft) SW 0,00 h 4,6 C 5,6 C 10,1 km/h (2 Bft)
26.03.2023 01:00 7,9 C 11,3 C 7,3 C 7,5 C 6,7 C 0,0 C 79 % 66 % 1007,9 hPa 0,0 l/m 6,9 km/h (2 Bft) SW 0,00 h 4,4 C 5,5 C 9,6 km/h (2 Bft)
26.03.2023 03:00 7,5 C 11,3 C 6,9 C 7,2 C 6,4 C 0,0 C 80 % 69 % 1008,1 hPa 0,0 l/m 6,4 km/h (2 Bft) SW 0,00 h 4,3 C 5,4 C 7,5 km/h (2 Bft)
26.03.2023 04:00 7,3 C 11,3 C 6,7 C 6,9 C 6,2 C 0,0 C 82 % 73 % 1007,8 hPa 0,0 l/m 5,6 km/h (1 Bft) SW 0,00 h 4,5 C 5,4 C 9,0 km/h (2 Bft)
26.03.2023 05:00 7,2 C 11,2 C 6,8 C 7,2 C 7,2 C 0,0 C 83 % 71 % 1007,8 hPa 0,0 l/m 2,4 km/h (1 Bft) W-SW 0,00 h 4,5 C 7,1 C 2,7 km/h (1 Bft)
26.03.2023 06:00 7,4 C 11,1 C 6,9 C 7,2 C 6,8 C 0,0 C 82 % 70 % 1007,7 hPa 0,0 l/m 4,7 km/h (1 Bft) SW 0,00 h 4,5 C 6,4 C 5,6 km/h (1 Bft)
26.03.2023 07:00 7,3 C 11,0 C 6,9 C 7,2 C 7,1 C 0,0 C 82 % 70 % 1007,6 hPa 0,0 l/m 4,1 km/h (1 Bft) SW 0,00 h 4,5 C 6,9 C 5,5 km/h (1 Bft)
26.03.2023 08:00 7,6 C 11,0 C 7,3 C 7,8 C 7,8 C 0,3 C 82 % 69 % 1007,5 hPa 0,0 l/m 3,5 km/h (1 Bft) S 0,00 h 4,7 C 7,6 C 5,1 km/h (1 Bft)
26.03.2023 09:00 8,0 C 11,0 C 8,0 C 8,8 C 8,8 C 0,8 C 82 % 66 % 1007,0 hPa 0,0 l/m 3,0 km/h (1 Bft) S-SW 0,00 h 5,0 C 8,8 C 4,2 km/h (1 Bft)
26.03.2023 10:00 8,9 C 10,9 C 9,3 C 10,6 C 10,6 C 1,7 C 79 % 61 % 1006,6 hPa 0,0 l/m 3,4 km/h (1 Bft) SW 0,00 h 5,4 C 10,6 C 5,0 km/h (1 Bft)
26.03.2023 11:00 10,1 C 11,0 C 10,8 C 13,0 C 13,0 C 2,9 C 74 % 55 % 1006,3 hPa 0,0 l/m 3,9 km/h (1 Bft) S-SO 0,33 h 5,6 C 13,0 C 6,3 km/h (2 Bft)
26.03.2023 12:00 11,3 C 11,0 C 12,6 C 14,7 C 14,7 C 3,4 C 66 % 48 % 1005,5 hPa 0,0 l/m 3,7 km/h (1 Bft) SW 0,50 h 5,3 C 14,7 C 5,3 km/h (1 Bft)
26.03.2023 13:00 12,2 C 11,2 C 13,2 C 16,2 C 16,2 C 4,0 C 63 % 44 % 1005,0 hPa 0,0 l/m 4,0 km/h (1 Bft) SO 0,92 h 5,2 C 16,2 C 5,0 km/h (1 Bft)
26.03.2023 14:00 11,5 C 11,4 C 11,9 C 13,4 C 13,4 C 1,9 C 64 % 46 % 1004,8 hPa 0,0 l/m 4,8 km/h (1 Bft) SW 0,00 h 4,9 C 13,4 C 7,1 km/h (2 Bft)
26.03.2023 15:00 9,3 C 11,5 C 9,3 C 9,7 C 9,5 C 0,5 C 73 % 58 % 1004,6 hPa 0,0 l/m 4,7 km/h (1 Bft) NW 0,00 h 4,6 C 9,4 C 6,5 km/h (2 Bft)
26.03.2023 16:00 8,1 C 11,7 C 8,0 C 7,9 C 7,5 C 0,0 C 80 % 72 % 1004,4 hPa 0,7 l/m 2,6 km/h (1 Bft) W-SW 0,00 h 4,9 C 7,5 C 4,0 km/h (1 Bft)
26.03.2023 17:00 7,5 C 12,0 C 7,4 C 7,4 C 7,3 C 0,0 C 84 % 79 % 1004,1 hPa 0,7 l/m 0,1 km/h (0 Bft) N 0,00 h 5,0 C 7,3 C 0,0 km/h (0 Bft)
26.03.2023 18:00 7,5 C 12,0 C 7,2 C 7,4 C 7,2 C 0,0 C 86 % 83 % 1003,9 hPa 1,4 l/m 0,0 km/h (0 Bft) N 0,00 h 5,2 C 7,2 C 0,0 km/h (0 Bft)
26.03.2023 19:00 7,0 C 11,9 C 6,6 C 6,8 C 6,5 C 0,0 C 86 % 88 % 1003,7 hPa 0,0 l/m 0,0 km/h (0 Bft) N 0,00 h 4,8 C 6,5 C 0,0 km/h (0 Bft)
26.03.2023 20:00 6,6 C 12,0 C 6,3 C 6,4 C 6,1 C 0,0 C 87 % 88 % 1003,7 hPa 0,0 l/m 0,0 km/h (0 Bft) N 0,00 h 4,6 C 6,1 C 0,0 km/h (0 Bft)
26.03.2023 21:00 6,4 C 11,9 C 6,1 C 6,3 C 6,1 C 0,0 C 87 % 88 % 1003,5 hPa 0,0 l/m 0,1 km/h (0 Bft) N 0,00 h 4,5 C 6,1 C 0,1 km/h (0 Bft)
26.03.2023 22:00 6,4 C 11,9 C 6,2 C 6,3 C 6,2 C 0,0 C 88 % 88 % 1003,2 hPa 0,0 l/m 0,0 km/h (0 Bft) N 0,00 h 4,6 C 6,2 C 0,0 km/h (0 Bft)
26.03.2023 23:00 6,3 C 11,8 C 6,2 C 6,3 C 6,2 C 0,0 C 88 % 88 % 1003,1 hPa 1,4 l/m 0,0 km/h (0 Bft) N 0,00 h 4,5 C 6,2 C 0,0 km/h (0 Bft)
Min-Datum _ 26.03.23 21.03.23 20.03.23 26.03.23 25.03.23 20.03.23 22.03.23 22.03.23 26.03.23 - 20.03.23 - - 26.03.23 25.03.23 20.03.23
_ Min-Zeit 23:55 09:35 05:40 21:20 15:10 02:29 15:05 14:25 23:05 - 00:00 - - 03:40 15:10 00:00
Minimum _ 6,2 C 10,5 C 4,6 C 6,2 C 4,9 C 0,0 C 52 % 40 % 1002,8 hPa - 0,0 km/h (0 Bft) - - 4,1 C 2,0 C 0,0 km/h (0 Bft)
Max-Datum _ 22.03.23 24.03.23 22.03.23 22.03.23 22.03.23 22.03.23 21.03.23 20.03.23 20.03.23 24.03.23 25.03.23 - 22.03.23 24.03.23 22.03.23 25.03.23
_ Max-Zeit 15:55 14:00 11:55 12:15 12:15 12:15 07:35 14:55 12:00 14:19 14:55 - 12:11 10:35 12:15 14:55
Maximum _ 17,1 C 14,1 C 17,5 C 21,4 C 21,4 C 5,4 C 89 % 90 % 1019,8 hPa 1,4 l/m 15,6 km/h
S-SW (3 Bft)
- 0,10 h 10,6 C 21,4 C 33,6 km/h
S-SW (5 Bft)
Durchschnitt _ 10,9 C 12,0 C 10,4 C 11,4 C 11,2 C 0,6 C 76 % 67 % 1010,5 hPa #10,3 l/m 3,2 km/h (1 Bft) S #8:30 h 6,7 C 11,0 C 4,9 km/h (1 Bft)
2023 www.wetterstation-wechselburg.de